sensor_id;sensor_type;location;lat;lon;timestamp;P1;durP1;ratioP1;P2;durP2;ratioP2
4268;SDS011;2148;48.554;7.834;2023-08-24T00:01:24;9.48;;;8.68;;
4268;SDS011;2148;48.554;7.834;2023-08-24T00:03:50;9.65;;;9.05;;
4268;SDS011;2148;48.554;7.834;2023-08-24T00:06:15;9.50;;;8.90;;
4268;SDS011;2148;48.554;7.834;2023-08-24T00:08:41;9.50;;;8.90;;
4268;SDS011;2148;48.554;7.834;2023-08-24T00:11:07;10.00;;;9.38;;
4268;SDS011;2148;48.554;7.834;2023-08-24T00:13:32;9.30;;;8.60;;
4268;SDS011;2148;48.554;7.834;2023-08-24T00:15:58;10.20;;;9.50;;
4268;SDS011;2148;48.554;7.834;2023-08-24T00:18:24;9.82;;;8.95;;
4268;SDS011;2148;48.554;7.834;2023-08-24T00:20:49;10.40;;;9.60;;
4268;SDS011;2148;48.554;7.834;2023-08-24T00:23:14;10.23;;;9.43;;
4268;SDS011;2148;48.554;7.834;2023-08-24T00:25:40;10.52;;;9.73;;
4268;SDS011;2148;48.554;7.834;2023-08-24T00:28:06;10.55;;;9.85;;
4268;SDS011;2148;48.554;7.834;2023-08-24T00:30:31;10.82;;;10.13;;
4268;SDS011;2148;48.554;7.834;2023-08-24T00:32:57;10.32;;;9.52;;
4268;SDS011;2148;48.554;7.834;2023-08-24T00:35:22;10.38;;;9.68;;
4268;SDS011;2148;48.554;7.834;2023-08-24T00:37:47;10.52;;;9.63;;
4268;SDS011;2148;48.554;7.834;2023-08-24T00:40:13;11.52;;;10.52;;
4268;SDS011;2148;48.554;7.834;2023-08-24T00:42:42;10.50;;;9.90;;
4268;SDS011;2148;48.554;7.834;2023-08-24T00:45:08;10.63;;;9.63;;
4268;SDS011;2148;48.554;7.834;2023-08-24T00:47:34;10.38;;;9.68;;
4268;SDS011;2148;48.554;7.834;2023-08-24T00:50:00;10.73;;;10.02;;
4268;SDS011;2148;48.554;7.834;2023-08-24T00:52:25;10.32;;;9.65;;
4268;SDS011;2148;48.554;7.834;2023-08-24T00:54:52;11.38;;;10.45;;
4268;SDS011;2148;48.554;7.834;2023-08-24T00:57:17;10.80;;;10.02;;
4268;SDS011;2148;48.554;7.834;2023-08-24T00:59:42;11.95;;;10.93;;
4268;SDS011;2148;48.554;7.834;2023-08-24T01:02:08;11.60;;;10.27;;
4268;SDS011;2148;48.554;7.834;2023-08-24T01:04:33;11.05;;;9.98;;
4268;SDS011;2148;48.554;7.834;2023-08-24T01:06:58;11.05;;;10.13;;
4268;SDS011;2148;48.554;7.834;2023-08-24T01:09:24;11.13;;;10.40;;
4268;SDS011;2148;48.554;7.834;2023-08-24T01:11:52;11.45;;;10.30;;
4268;SDS011;2148;48.554;7.834;2023-08-24T01:17:13;10.80;;;9.95;;
4268;SDS011;2148;48.554;7.834;2023-08-24T01:19:43;10.82;;;9.98;;
4268;SDS011;2148;48.554;7.834;2023-08-24T01:27:37;10.98;;;10.18;;
4268;SDS011;2148;48.554;7.834;2023-08-24T01:30:03;11.50;;;10.70;;
4268;SDS011;2148;48.554;7.834;2023-08-24T01:32:30;11.57;;;10.77;;
4268;SDS011;2148;48.554;7.834;2023-08-24T01:34:56;10.98;;;10.35;;
4268;SDS011;2148;48.554;7.834;2023-08-24T01:37:22;11.63;;;10.93;;
4268;SDS011;2148;48.554;7.834;2023-08-24T01:42:31;10.75;;;10.05;;
4268;SDS011;2148;48.554;7.834;2023-08-24T01:44:58;10.90;;;10.10;;
4268;SDS011;2148;48.554;7.834;2023-08-24T01:47:26;11.05;;;10.25;;
4268;SDS011;2148;48.554;7.834;2023-08-24T01:49:52;11.30;;;10.38;;
4268;SDS011;2148;48.554;7.834;2023-08-24T01:52:17;11.10;;;10.30;;
4268;SDS011;2148;48.554;7.834;2023-08-24T01:54:43;11.48;;;10.68;;
4268;SDS011;2148;48.554;7.834;2023-08-24T01:57:09;11.52;;;10.63;;
4268;SDS011;2148;48.554;7.834;2023-08-24T01:59:35;11.23;;;10.52;;
4268;SDS011;2148;48.554;7.834;2023-08-24T02:02:00;12.00;;;11.00;;
4268;SDS011;2148;48.554;7.834;2023-08-24T02:04:25;11.85;;;11.13;;
4268;SDS011;2148;48.554;7.834;2023-08-24T02:06:51;12.65;;;11.52;;
4268;SDS011;2148;48.554;7.834;2023-08-24T02:09:16;11.25;;;10.48;;
4268;SDS011;2148;48.554;7.834;2023-08-24T02:11:41;11.73;;;10.87;;
4268;SDS011;2148;48.554;7.834;2023-08-24T02:14:06;10.50;;;9.68;;
4268;SDS011;2148;48.554;7.834;2023-08-24T02:16:32;11.18;;;10.27;;
4268;SDS011;2148;48.554;7.834;2023-08-24T02:18:58;10.57;;;9.65;;
4268;SDS011;2148;48.554;7.834;2023-08-24T02:21:23;11.40;;;10.60;;
4268;SDS011;2148;48.554;7.834;2023-08-24T02:23:48;10.77;;;9.88;;
4268;SDS011;2148;48.554;7.834;2023-08-24T02:26:13;11.40;;;10.57;;
4268;SDS011;2148;48.554;7.834;2023-08-24T02:28:39;10.98;;;10.18;;
4268;SDS011;2148;48.554;7.834;2023-08-24T02:31:04;10.68;;;9.80;;
4268;SDS011;2148;48.554;7.834;2023-08-24T02:33:30;10.40;;;9.63;;
4268;SDS011;2148;48.554;7.834;2023-08-24T02:35:56;10.60;;;9.75;;
4268;SDS011;2148;48.554;7.834;2023-08-24T02:38:21;10.68;;;9.77;;
4268;SDS011;2148;48.554;7.834;2023-08-24T02:40:47;11.15;;;10.25;;
4268;SDS011;2148;48.554;7.834;2023-08-24T02:43:13;11.15;;;10.05;;
4268;SDS011;2148;48.554;7.834;2023-08-24T02:45:38;11.05;;;9.93;;
4268;SDS011;2148;48.554;7.834;2023-08-24T02:48:03;10.43;;;9.40;;
4268;SDS011;2148;48.554;7.834;2023-08-24T02:50:29;10.80;;;10.00;;
4268;SDS011;2148;48.554;7.834;2023-08-24T02:52:55;10.70;;;9.93;;
4268;SDS011;2148;48.554;7.834;2023-08-24T02:55:23;10.25;;;9.35;;
4268;SDS011;2148;48.554;7.834;2023-08-24T02:57:48;10.38;;;9.57;;
4268;SDS011;2148;48.554;7.834;2023-08-24T03:00:13;14.47;;;9.40;;
4268;SDS011;2148;48.554;7.834;2023-08-24T03:02:39;10.10;;;9.32;;
4268;SDS011;2148;48.554;7.834;2023-08-24T03:05:04;10.25;;;9.52;;
4268;SDS011;2148;48.554;7.834;2023-08-24T03:07:30;10.60;;;9.60;;
4268;SDS011;2148;48.554;7.834;2023-08-24T03:09:55;9.93;;;9.23;;
4268;SDS011;2148;48.554;7.834;2023-08-24T03:12:20;9.77;;;9.07;;
4268;SDS011;2148;48.554;7.834;2023-08-24T03:14:45;9.40;;;8.50;;
4268;SDS011;2148;48.554;7.834;2023-08-24T03:17:11;10.00;;;9.20;;
4268;SDS011;2148;48.554;7.834;2023-08-24T03:19:36;9.52;;;8.75;;
4268;SDS011;2148;48.554;7.834;2023-08-24T03:22:01;9.63;;;8.73;;
4268;SDS011;2148;48.554;7.834;2023-08-24T03:24:27;9.52;;;8.73;;
4268;SDS011;2148;48.554;7.834;2023-08-24T03:26:52;10.00;;;9.30;;
4268;SDS011;2148;48.554;7.834;2023-08-24T03:29:17;10.68;;;9.77;;
4268;SDS011;2148;48.554;7.834;2023-08-24T03:31:43;10.47;;;9.57;;
4268;SDS011;2148;48.554;7.834;2023-08-24T03:34:08;9.90;;;9.05;;
4268;SDS011;2148;48.554;7.834;2023-08-24T03:36:33;9.35;;;8.55;;
4268;SDS011;2148;48.554;7.834;2023-08-24T03:38:58;9.57;;;8.93;;
4268;SDS011;2148;48.554;7.834;2023-08-24T03:41:24;9.82;;;8.93;;
4268;SDS011;2148;48.554;7.834;2023-08-24T03:43:49;10.20;;;9.40;;
4268;SDS011;2148;48.554;7.834;2023-08-24T03:46:14;9.83;;;9.10;;
4268;SDS011;2148;48.554;7.834;2023-08-24T03:48:40;9.50;;;8.90;;
4268;SDS011;2148;48.554;7.834;2023-08-24T03:51:05;9.60;;;8.80;;
4268;SDS011;2148;48.554;7.834;2023-08-24T03:53:30;10.70;;;10.00;;
4268;SDS011;2148;48.554;7.834;2023-08-24T03:55:55;11.47;;;10.53;;
4268;SDS011;2148;48.554;7.834;2023-08-24T03:58:21;10.60;;;9.60;;
4268;SDS011;2148;48.554;7.834;2023-08-24T04:00:46;10.70;;;9.97;;
4268;SDS011;2148;48.554;7.834;2023-08-24T04:03:12;10.43;;;9.53;;
4268;SDS011;2148;48.554;7.834;2023-08-24T04:05:37;10.80;;;9.87;;
4268;SDS011;2148;48.554;7.834;2023-08-24T04:08:03;11.30;;;10.50;;
4268;SDS011;2148;48.554;7.834;2023-08-24T04:10:29;11.47;;;10.40;;
4268;SDS011;2148;48.554;7.834;2023-08-24T04:12:54;10.93;;;10.00;;
4268;SDS011;2148;48.554;7.834;2023-08-24T04:15:20;10.57;;;9.85;;
4268;SDS011;2148;48.554;7.834;2023-08-24T04:17:45;11.37;;;10.47;;
4268;SDS011;2148;48.554;7.834;2023-08-24T04:20:11;12.10;;;11.10;;
4268;SDS011;2148;48.554;7.834;2023-08-24T04:22:37;11.20;;;10.40;;
4268;SDS011;2148;48.554;7.834;2023-08-24T04:25:02;12.20;;;11.30;;
4268;SDS011;2148;48.554;7.834;2023-08-24T04:27:28;11.80;;;10.87;;
4268;SDS011;2148;48.554;7.834;2023-08-24T04:29:53;11.27;;;10.57;;
4268;SDS011;2148;48.554;7.834;2023-08-24T04:32:19;11.33;;;10.63;;
4268;SDS011;2148;48.554;7.834;2023-08-24T04:34:44;11.73;;;10.93;;
4268;SDS011;2148;48.554;7.834;2023-08-24T04:37:09;12.27;;;11.27;;
4268;SDS011;2148;48.554;7.834;2023-08-24T04:39:34;11.93;;;11.13;;
4268;SDS011;2148;48.554;7.834;2023-08-24T04:42:00;12.73;;;11.77;;
4268;SDS011;2148;48.554;7.834;2023-08-24T04:44:25;11.53;;;10.73;;
4268;SDS011;2148;48.554;7.834;2023-08-24T04:46:50;12.23;;;11.43;;
4268;SDS011;2148;48.554;7.834;2023-08-24T04:49:16;12.23;;;11.40;;
4268;SDS011;2148;48.554;7.834;2023-08-24T04:51:41;11.53;;;10.83;;
4268;SDS011;2148;48.554;7.834;2023-08-24T04:54:06;11.60;;;10.80;;
4268;SDS011;2148;48.554;7.834;2023-08-24T04:56:31;12.43;;;11.63;;
4268;SDS011;2148;48.554;7.834;2023-08-24T04:58:57;13.20;;;11.90;;
4268;SDS011;2148;48.554;7.834;2023-08-24T05:01:26;11.93;;;10.97;;
4268;SDS011;2148;48.554;7.834;2023-08-24T05:03:52;13.00;;;11.87;;
4268;SDS011;2148;48.554;7.834;2023-08-24T05:06:18;12.50;;;11.60;;
4268;SDS011;2148;48.554;7.834;2023-08-24T05:08:44;13.13;;;12.13;;
4268;SDS011;2148;48.554;7.834;2023-08-24T05:11:19;13.53;;;12.57;;
4268;SDS011;2148;48.554;7.834;2023-08-24T05:13:46;13.17;;;12.17;;
4268;SDS011;2148;48.554;7.834;2023-08-24T05:16:12;13.57;;;12.67;;
4268;SDS011;2148;48.554;7.834;2023-08-24T05:18:38;14.77;;;13.83;;
4268;SDS011;2148;48.554;7.834;2023-08-24T05:21:03;14.17;;;13.27;;
4268;SDS011;2148;48.554;7.834;2023-08-24T05:23:29;15.53;;;14.27;;
4268;SDS011;2148;48.554;7.834;2023-08-24T05:25:58;15.00;;;13.90;;
4268;SDS011;2148;48.554;7.834;2023-08-24T05:28:27;15.10;;;14.00;;
4268;SDS011;2148;48.554;7.834;2023-08-24T05:30:53;14.90;;;13.90;;
4268;SDS011;2148;48.554;7.834;2023-08-24T05:33:19;15.50;;;14.47;;
4268;SDS011;2148;48.554;7.834;2023-08-24T05:35:45;15.50;;;14.33;;
4268;SDS011;2148;48.554;7.834;2023-08-24T05:38:11;14.67;;;13.77;;
4268;SDS011;2148;48.554;7.834;2023-08-24T05:40:37;15.07;;;13.87;;
4268;SDS011;2148;48.554;7.834;2023-08-24T05:43:02;15.03;;;13.93;;
4268;SDS011;2148;48.554;7.834;2023-08-24T05:45:28;14.27;;;13.27;;
4268;SDS011;2148;48.554;7.834;2023-08-24T05:47:53;14.30;;;13.40;;
4268;SDS011;2148;48.554;7.834;2023-08-24T05:50:18;13.60;;;12.70;;
4268;SDS011;2148;48.554;7.834;2023-08-24T05:52:44;13.20;;;12.10;;
4268;SDS011;2148;48.554;7.834;2023-08-24T05:55:09;12.97;;;11.93;;
4268;SDS011;2148;48.554;7.834;2023-08-24T05:57:34;12.70;;;11.70;;
4268;SDS011;2148;48.554;7.834;2023-08-24T06:00:00;13.17;;;12.10;;
4268;SDS011;2148;48.554;7.834;2023-08-24T06:02:25;12.43;;;11.43;;
4268;SDS011;2148;48.554;7.834;2023-08-24T06:04:50;11.53;;;10.73;;
4268;SDS011;2148;48.554;7.834;2023-08-24T06:07:16;12.33;;;11.03;;
4268;SDS011;2148;48.554;7.834;2023-08-24T06:09:41;11.87;;;11.00;;
4268;SDS011;2148;48.554;7.834;2023-08-24T06:12:07;12.70;;;11.80;;
4268;SDS011;2148;48.554;7.834;2023-08-24T06:14:32;11.50;;;10.70;;
4268;SDS011;2148;48.554;7.834;2023-08-24T06:16:57;11.57;;;10.73;;
4268;SDS011;2148;48.554;7.834;2023-08-24T06:19:23;11.20;;;10.20;;
4268;SDS011;2148;48.554;7.834;2023-08-24T06:21:48;12.20;;;11.17;;
4268;SDS011;2148;48.554;7.834;2023-08-24T06:24:13;12.57;;;11.47;;
4268;SDS011;2148;48.554;7.834;2023-08-24T06:26:39;12.60;;;11.33;;
4268;SDS011;2148;48.554;7.834;2023-08-24T06:29:04;12.10;;;11.20;;
4268;SDS011;2148;48.554;7.834;2023-08-24T06:31:30;12.37;;;11.37;;
4268;SDS011;2148;48.554;7.834;2023-08-24T06:33:56;12.20;;;11.10;;
4268;SDS011;2148;48.554;7.834;2023-08-24T06:36:21;12.57;;;11.33;;
4268;SDS011;2148;48.554;7.834;2023-08-24T06:38:46;11.43;;;10.53;;
4268;SDS011;2148;48.554;7.834;2023-08-24T06:41:12;11.10;;;10.30;;
4268;SDS011;2148;48.554;7.834;2023-08-24T06:43:37;11.33;;;10.43;;
4268;SDS011;2148;48.554;7.834;2023-08-24T06:46:06;12.17;;;11.27;;
4268;SDS011;2148;48.554;7.834;2023-08-24T06:48:34;11.33;;;10.53;;
4268;SDS011;2148;48.554;7.834;2023-08-24T06:51:00;12.47;;;11.57;;
4268;SDS011;2148;48.554;7.834;2023-08-24T06:53:25;11.70;;;10.90;;
4268;SDS011;2148;48.554;7.834;2023-08-24T06:55:54;11.37;;;10.40;;
4268;SDS011;2148;48.554;7.834;2023-08-24T06:58:23;10.70;;;10.00;;
4268;SDS011;2148;48.554;7.834;2023-08-24T07:00:48;11.10;;;10.03;;
4268;SDS011;2148;48.554;7.834;2023-08-24T07:03:16;11.87;;;10.80;;
4268;SDS011;2148;48.554;7.834;2023-08-24T07:05:42;11.37;;;10.53;;
4268;SDS011;2148;48.554;7.834;2023-08-24T07:08:08;12.60;;;11.50;;
4268;SDS011;2148;48.554;7.834;2023-08-24T07:10:33;11.80;;;11.00;;
4268;SDS011;2148;48.554;7.834;2023-08-24T07:12:58;12.70;;;11.70;;
4268;SDS011;2148;48.554;7.834;2023-08-24T07:15:23;12.27;;;11.23;;
4268;SDS011;2148;48.554;7.834;2023-08-24T07:17:49;12.30;;;11.40;;
4268;SDS011;2148;48.554;7.834;2023-08-24T07:20:14;11.57;;;10.70;;
4268;SDS011;2148;48.554;7.834;2023-08-24T07:22:40;11.77;;;10.97;;
4268;SDS011;2148;48.554;7.834;2023-08-24T07:25:05;12.57;;;11.77;;
4268;SDS011;2148;48.554;7.834;2023-08-24T07:27:31;12.63;;;11.83;;
4268;SDS011;2148;48.554;7.834;2023-08-24T07:29:57;12.93;;;11.93;;
4268;SDS011;2148;48.554;7.834;2023-08-24T07:32:22;12.97;;;11.97;;
4268;SDS011;2148;48.554;7.834;2023-08-24T07:34:48;13.60;;;12.30;;
4268;SDS011;2148;48.554;7.834;2023-08-24T07:37:14;12.63;;;11.63;;
4268;SDS011;2148;48.554;7.834;2023-08-24T07:39:39;11.50;;;10.57;;
4268;SDS011;2148;48.554;7.834;2023-08-24T07:42:05;12.80;;;11.80;;
4268;SDS011;2148;48.554;7.834;2023-08-24T07:44:30;11.77;;;11.03;;
4268;SDS011;2148;48.554;7.834;2023-08-24T07:46:55;12.00;;;11.33;;
4268;SDS011;2148;48.554;7.834;2023-08-24T07:49:24;13.10;;;12.20;;
4268;SDS011;2148;48.554;7.834;2023-08-24T07:51:52;13.37;;;12.47;;
4268;SDS011;2148;48.554;7.834;2023-08-24T07:54:17;14.20;;;13.20;;
4268;SDS011;2148;48.554;7.834;2023-08-24T07:56:43;12.80;;;12.00;;
4268;SDS011;2148;48.554;7.834;2023-08-24T07:59:08;12.20;;;11.40;;
4268;SDS011;2148;48.554;7.834;2023-08-24T08:01:33;12.13;;;11.23;;
4268;SDS011;2148;48.554;7.834;2023-08-24T08:03:58;12.93;;;11.93;;
4268;SDS011;2148;48.554;7.834;2023-08-24T08:06:25;12.43;;;11.30;;
4268;SDS011;2148;48.554;7.834;2023-08-24T08:08:51;12.57;;;11.67;;
4268;SDS011;2148;48.554;7.834;2023-08-24T08:11:17;11.77;;;11.03;;
4268;SDS011;2148;48.554;7.834;2023-08-24T08:13:42;12.77;;;11.80;;
4268;SDS011;2148;48.554;7.834;2023-08-24T08:16:07;12.73;;;11.73;;
4268;SDS011;2148;48.554;7.834;2023-08-24T08:18:33;12.60;;;11.57;;
4268;SDS011;2148;48.554;7.834;2023-08-24T08:20:59;13.20;;;12.07;;
4268;SDS011;2148;48.554;7.834;2023-08-24T08:23:25;13.83;;;12.53;;
4268;SDS011;2148;48.554;7.834;2023-08-24T08:25:50;12.97;;;12.10;;
4268;SDS011;2148;48.554;7.834;2023-08-24T08:28:16;12.90;;;12.10;;
4268;SDS011;2148;48.554;7.834;2023-08-24T08:30:42;13.67;;;12.80;;
4268;SDS011;2148;48.554;7.834;2023-08-24T08:33:08;14.43;;;13.53;;
4268;SDS011;2148;48.554;7.834;2023-08-24T08:35:33;13.37;;;12.30;;
4268;SDS011;2148;48.554;7.834;2023-08-24T08:37:58;12.47;;;11.60;;
4268;SDS011;2148;48.554;7.834;2023-08-24T08:40:25;13.80;;;12.63;;
4268;SDS011;2148;48.554;7.834;2023-08-24T08:42:55;13.97;;;12.87;;
4268;SDS011;2148;48.554;7.834;2023-08-24T08:45:21;13.00;;;11.90;;
4268;SDS011;2148;48.554;7.834;2023-08-24T08:47:49;12.40;;;11.60;;
4268;SDS011;2148;48.554;7.834;2023-08-24T08:50:15;13.37;;;12.37;;
4268;SDS011;2148;48.554;7.834;2023-08-24T08:52:40;13.90;;;12.80;;
4268;SDS011;2148;48.554;7.834;2023-08-24T08:55:05;12.90;;;12.10;;
4268;SDS011;2148;48.554;7.834;2023-08-24T08:57:34;13.27;;;12.43;;
4268;SDS011;2148;48.554;7.834;2023-08-24T08:59:59;13.23;;;12.33;;
4268;SDS011;2148;48.554;7.834;2023-08-24T09:02:25;13.90;;;12.90;;
4268;SDS011;2148;48.554;7.834;2023-08-24T09:04:51;13.23;;;12.40;;
4268;SDS011;2148;48.554;7.834;2023-08-24T09:07:16;12.47;;;11.63;;
4268;SDS011;2148;48.554;7.834;2023-08-24T09:09:42;12.33;;;11.30;;
4268;SDS011;2148;48.554;7.834;2023-08-24T09:12:08;12.00;;;11.20;;
4268;SDS011;2148;48.554;7.834;2023-08-24T09:14:34;12.43;;;11.40;;
4268;SDS011;2148;48.554;7.834;2023-08-24T09:16:59;13.47;;;12.27;;
4268;SDS011;2148;48.554;7.834;2023-08-24T09:19:28;13.17;;;12.37;;
4268;SDS011;2148;48.554;7.834;2023-08-24T09:21:57;12.43;;;11.43;;
4268;SDS011;2148;48.554;7.834;2023-08-24T09:24:33;11.17;;;10.47;;
4268;SDS011;2148;48.554;7.834;2023-08-24T09:26:59;12.63;;;11.37;;
4268;SDS011;2148;48.554;7.834;2023-08-24T09:29:25;12.65;;;11.85;;
4268;SDS011;2148;48.554;7.834;2023-08-24T09:31:50;12.18;;;11.48;;
4268;SDS011;2148;48.554;7.834;2023-08-24T09:34:19;12.82;;;11.52;;
4268;SDS011;2148;48.554;7.834;2023-08-24T09:36:45;11.73;;;10.80;;
4268;SDS011;2148;48.554;7.834;2023-08-24T09:39:11;12.30;;;11.50;;
4268;SDS011;2148;48.554;7.834;2023-08-24T09:41:43;12.60;;;11.50;;
4268;SDS011;2148;48.554;7.834;2023-08-24T09:44:09;12.10;;;11.30;;
4268;SDS011;2148;48.554;7.834;2023-08-24T09:46:35;12.00;;;11.30;;
4268;SDS011;2148;48.554;7.834;2023-08-24T09:49:04;12.90;;;11.80;;
4268;SDS011;2148;48.554;7.834;2023-08-24T09:51:30;11.98;;;11.27;;
4268;SDS011;2148;48.554;7.834;2023-08-24T09:53:57;12.70;;;11.68;;
4268;SDS011;2148;48.554;7.834;2023-08-24T09:56:28;12.23;;;11.23;;
4268;SDS011;2148;48.554;7.834;2023-08-24T09:58:54;11.30;;;10.43;;
4268;SDS011;2148;48.554;7.834;2023-08-24T10:01:20;12.10;;;11.20;;
4268;SDS011;2148;48.554;7.834;2023-08-24T10:03:45;12.02;;;11.13;;
4268;SDS011;2148;48.554;7.834;2023-08-24T10:06:12;12.00;;;11.32;;
4268;SDS011;2148;48.554;7.834;2023-08-24T10:08:39;11.75;;;10.75;;
4268;SDS011;2148;48.554;7.834;2023-08-24T10:11:08;10.70;;;10.00;;
4268;SDS011;2148;48.554;7.834;2023-08-24T10:13:54;11.75;;;10.90;;
4268;SDS011;2148;48.554;7.834;2023-08-24T10:16:30;11.55;;;10.73;;
4268;SDS011;2148;48.554;7.834;2023-08-24T10:18:56;11.43;;;10.43;;
4268;SDS011;2148;48.554;7.834;2023-08-24T10:21:21;11.85;;;10.85;;
4268;SDS011;2148;48.554;7.834;2023-08-24T10:23:50;11.32;;;10.50;;
4268;SDS011;2148;48.554;7.834;2023-08-24T10:26:17;13.57;;;12.25;;
4268;SDS011;2148;48.554;7.834;2023-08-24T10:28:42;12.07;;;11.23;;
4268;SDS011;2148;48.554;7.834;2023-08-24T10:31:09;12.75;;;11.88;;
4268;SDS011;2148;48.554;7.834;2023-08-24T10:33:34;11.35;;;10.57;;
4268;SDS011;2148;48.554;7.834;2023-08-24T10:36:03;10.43;;;9.80;;
4268;SDS011;2148;48.554;7.834;2023-08-24T10:38:29;10.82;;;10.13;;
4268;SDS011;2148;48.554;7.834;2023-08-24T10:41:02;11.00;;;10.20;;
4268;SDS011;2148;48.554;7.834;2023-08-24T10:43:29;10.05;;;9.25;;
4268;SDS011;2148;48.554;7.834;2023-08-24T10:45:55;10.75;;;9.88;;
4268;SDS011;2148;48.554;7.834;2023-08-24T10:48:25;11.60;;;10.77;;
4268;SDS011;2148;48.554;7.834;2023-08-24T10:53:52;12.73;;;11.93;;
4268;SDS011;2148;48.554;7.834;2023-08-24T10:56:24;11.18;;;10.45;;
4268;SDS011;2148;48.554;7.834;2023-08-24T10:59:10;10.63;;;9.73;;
4268;SDS011;2148;48.554;7.834;2023-08-24T11:01:38;9.95;;;9.23;;
4268;SDS011;2148;48.554;7.834;2023-08-24T11:04:04;10.82;;;9.80;;
4268;SDS011;2148;48.554;7.834;2023-08-24T11:06:30;10.00;;;8.98;;
4268;SDS011;2148;48.554;7.834;2023-08-24T11:09:08;11.35;;;10.38;;
4268;SDS011;2148;48.554;7.834;2023-08-24T11:11:38;11.48;;;10.57;;
4268;SDS011;2148;48.554;7.834;2023-08-24T11:14:17;9.98;;;9.20;;
4268;SDS011;2148;48.554;7.834;2023-08-24T11:16:56;9.43;;;8.60;;
4268;SDS011;2148;48.554;7.834;2023-08-24T11:19:23;9.88;;;9.07;;
4268;SDS011;2148;48.554;7.834;2023-08-24T11:21:48;10.48;;;9.40;;
4268;SDS011;2148;48.554;7.834;2023-08-24T11:24:13;8.73;;;8.20;;
4268;SDS011;2148;48.554;7.834;2023-08-24T11:26:41;8.45;;;7.90;;
4268;SDS011;2148;48.554;7.834;2023-08-24T11:29:07;8.75;;;8.02;;
4268;SDS011;2148;48.554;7.834;2023-08-24T11:31:33;9.75;;;8.95;;
4268;SDS011;2148;48.554;7.834;2023-08-24T11:33:59;10.20;;;9.27;;
4268;SDS011;2148;48.554;7.834;2023-08-24T11:36:24;10.23;;;9.35;;
4268;SDS011;2148;48.554;7.834;2023-08-24T11:38:52;9.95;;;9.07;;
4268;SDS011;2148;48.554;7.834;2023-08-24T11:41:18;9.90;;;8.98;;
4268;SDS011;2148;48.554;7.834;2023-08-24T11:43:46;8.80;;;7.97;;
4268;SDS011;2148;48.554;7.834;2023-08-24T11:46:15;9.85;;;9.05;;
4268;SDS011;2148;48.554;7.834;2023-08-24T11:48:41;8.85;;;8.20;;
4268;SDS011;2148;48.554;7.834;2023-08-24T11:51:10;9.70;;;9.02;;
4268;SDS011;2148;48.554;7.834;2023-08-24T11:53:42;9.18;;;8.57;;
4268;SDS011;2148;48.554;7.834;2023-08-24T11:56:08;10.63;;;9.48;;
4268;SDS011;2148;48.554;7.834;2023-08-24T11:58:37;9.48;;;8.63;;
4268;SDS011;2148;48.554;7.834;2023-08-24T12:01:06;9.57;;;8.68;;
4268;SDS011;2148;48.554;7.834;2023-08-24T12:03:32;10.00;;;9.00;;
4268;SDS011;2148;48.554;7.834;2023-08-24T12:06:00;9.68;;;8.48;;
4268;SDS011;2148;48.554;7.834;2023-08-24T12:08:26;9.93;;;9.15;;
4268;SDS011;2148;48.554;7.834;2023-08-24T12:10:51;9.15;;;8.48;;
4268;SDS011;2148;48.554;7.834;2023-08-24T12:13:17;9.20;;;8.38;;
4268;SDS011;2148;48.554;7.834;2023-08-24T12:15:42;9.60;;;8.80;;
4268;SDS011;2148;48.554;7.834;2023-08-24T12:18:09;10.05;;;9.25;;
4268;SDS011;2148;48.554;7.834;2023-08-24T12:20:38;9.57;;;8.88;;
4268;SDS011;2148;48.554;7.834;2023-08-24T12:23:05;9.02;;;8.43;;
4268;SDS011;2148;48.554;7.834;2023-08-24T12:25:35;9.23;;;8.43;;
4268;SDS011;2148;48.554;7.834;2023-08-24T12:28:13;9.05;;;8.40;;
4268;SDS011;2148;48.554;7.834;2023-08-24T12:30:44;10.00;;;9.30;;
4268;SDS011;2148;48.554;7.834;2023-08-24T12:33:20;9.00;;;8.27;;
4268;SDS011;2148;48.554;7.834;2023-08-24T12:35:56;8.68;;;8.07;;
4268;SDS011;2148;48.554;7.834;2023-08-24T12:38:23;8.77;;;8.07;;
4268;SDS011;2148;48.554;7.834;2023-08-24T12:40:49;9.43;;;8.20;;
4268;SDS011;2148;48.554;7.834;2023-08-24T12:43:14;8.20;;;7.60;;
4268;SDS011;2148;48.554;7.834;2023-08-24T12:45:39;9.02;;;8.20;;
4268;SDS011;2148;48.554;7.834;2023-08-24T12:48:06;8.77;;;8.07;;
4268;SDS011;2148;48.554;7.834;2023-08-24T12:50:32;8.73;;;7.95;;
4268;SDS011;2148;48.554;7.834;2023-08-24T12:52:57;9.23;;;8.32;;
4268;SDS011;2148;48.554;7.834;2023-08-24T12:55:25;9.20;;;8.40;;
4268;SDS011;2148;48.554;7.834;2023-08-24T12:57:51;9.10;;;8.18;;
4268;SDS011;2148;48.554;7.834;2023-08-24T13:00:17;9.90;;;9.00;;
4268;SDS011;2148;48.554;7.834;2023-08-24T13:02:43;8.05;;;7.45;;
4268;SDS011;2148;48.554;7.834;2023-08-24T13:05:08;8.75;;;7.85;;
4268;SDS011;2148;48.554;7.834;2023-08-24T13:07:33;10.20;;;8.38;;
4268;SDS011;2148;48.554;7.834;2023-08-24T13:09:59;8.45;;;7.80;;
4268;SDS011;2148;48.554;7.834;2023-08-24T13:12:24;9.13;;;8.27;;
4268;SDS011;2148;48.554;7.834;2023-08-24T13:14:50;9.05;;;8.23;;
4268;SDS011;2148;48.554;7.834;2023-08-24T13:17:15;9.70;;;8.90;;
4268;SDS011;2148;48.554;7.834;2023-08-24T13:19:40;9.40;;;8.43;;
4268;SDS011;2148;48.554;7.834;2023-08-24T13:22:06;9.88;;;9.02;;
4268;SDS011;2148;48.554;7.834;2023-08-24T13:24:32;10.05;;;8.63;;
4268;SDS011;2148;48.554;7.834;2023-08-24T13:26:58;9.70;;;8.77;;
4268;SDS011;2148;48.554;7.834;2023-08-24T13:29:24;11.80;;;8.48;;
4268;SDS011;2148;48.554;7.834;2023-08-24T13:31:49;9.32;;;8.73;;
4268;SDS011;2148;48.554;7.834;2023-08-24T13:34:15;9.77;;;8.98;;
4268;SDS011;2148;48.554;7.834;2023-08-24T13:36:41;10.30;;;9.40;;
4268;SDS011;2148;48.554;7.834;2023-08-24T13:39:06;9.43;;;8.63;;
4268;SDS011;2148;48.554;7.834;2023-08-24T13:41:31;10.45;;;9.68;;
4268;SDS011;2148;48.554;7.834;2023-08-24T13:43:57;10.82;;;9.77;;
4268;SDS011;2148;48.554;7.834;2023-08-24T13:46:22;10.60;;;9.68;;
4268;SDS011;2148;48.554;7.834;2023-08-24T13:48:47;10.63;;;9.75;;
4268;SDS011;2148;48.554;7.834;2023-08-24T13:51:12;9.40;;;8.48;;
4268;SDS011;2148;48.554;7.834;2023-08-24T13:53:38;10.73;;;9.63;;
4268;SDS011;2148;48.554;7.834;2023-08-24T13:56:03;10.15;;;9.25;;
4268;SDS011;2148;48.554;7.834;2023-08-24T13:58:29;10.65;;;9.50;;
4268;SDS011;2148;48.554;7.834;2023-08-24T14:00:55;9.93;;;9.02;;
4268;SDS011;2148;48.554;7.834;2023-08-24T14:03:21;10.65;;;9.02;;
4268;SDS011;2148;48.554;7.834;2023-08-24T14:05:47;10.15;;;9.15;;
4268;SDS011;2148;48.554;7.834;2023-08-24T14:08:14;10.52;;;9.75;;
4268;SDS011;2148;48.554;7.834;2023-08-24T14:10:40;11.20;;;10.10;;
4268;SDS011;2148;48.554;7.834;2023-08-24T14:13:05;10.32;;;8.95;;
4268;SDS011;2148;48.554;7.834;2023-08-24T14:15:30;9.98;;;8.77;;
4268;SDS011;2148;48.554;7.834;2023-08-24T14:17:56;11.18;;;9.15;;
4268;SDS011;2148;48.554;7.834;2023-08-24T14:20:21;9.77;;;9.18;;
4268;SDS011;2148;48.554;7.834;2023-08-24T14:22:46;9.32;;;8.63;;
4268;SDS011;2148;48.554;7.834;2023-08-24T14:25:13;9.80;;;8.93;;
4268;SDS011;2148;48.554;7.834;2023-08-24T14:27:39;11.48;;;10.15;;
4268;SDS011;2148;48.554;7.834;2023-08-24T14:30:06;9.30;;;8.50;;
4268;SDS011;2148;48.554;7.834;2023-08-24T14:32:32;9.75;;;8.85;;
4268;SDS011;2148;48.554;7.834;2023-08-24T14:34:58;8.80;;;7.90;;
4268;SDS011;2148;48.554;7.834;2023-08-24T14:37:23;7.57;;;6.88;;
4268;SDS011;2148;48.554;7.834;2023-08-24T14:39:48;10.05;;;9.07;;
4268;SDS011;2148;48.554;7.834;2023-08-24T14:42:14;7.22;;;6.70;;
4268;SDS011;2148;48.554;7.834;2023-08-24T14:44:40;7.90;;;7.10;;
4268;SDS011;2148;48.554;7.834;2023-08-24T14:47:05;7.72;;;7.07;;
4268;SDS011;2148;48.554;7.834;2023-08-24T14:49:30;8.40;;;7.50;;
4268;SDS011;2148;48.554;7.834;2023-08-24T14:51:55;8.35;;;7.18;;
4268;SDS011;2148;48.554;7.834;2023-08-24T14:54:21;8.30;;;7.53;;
4268;SDS011;2148;48.554;7.834;2023-08-24T14:56:46;7.25;;;5.68;;
4268;SDS011;2148;48.554;7.834;2023-08-24T14:59:11;7.18;;;6.32;;
4268;SDS011;2148;48.554;7.834;2023-08-24T15:01:36;7.07;;;6.35;;
4268;SDS011;2148;48.554;7.834;2023-08-24T15:04:02;7.68;;;6.70;;
4268;SDS011;2148;48.554;7.834;2023-08-24T15:06:27;7.35;;;6.38;;